createdAt,value
2023-05-24T00:00:26.961Z,76.90
2023-05-24T00:02:28.817Z,76.90
2023-05-24T00:04:30.842Z,77.20
2023-05-24T00:06:32.640Z,77.20
2023-05-24T00:08:34.473Z,77.60
2023-05-24T00:10:36.258Z,77.90
2023-05-24T00:12:38.078Z,78.20
2023-05-24T00:14:39.844Z,78.10
2023-05-24T00:16:41.793Z,78.70
2023-05-24T00:18:43.656Z,79.20
2023-05-24T00:20:45.717Z,80.20
2023-05-24T00:22:47.718Z,81.70
2023-05-24T00:24:49.544Z,83.20
2023-05-24T00:26:51.322Z,83.80
2023-05-24T00:28:53.236Z,84.00
2023-05-24T00:30:55.039Z,86.20
2023-05-24T00:32:57.610Z,90.60
2023-05-24T00:37:01.711Z,74.60
2023-05-24T00:39:03.658Z,74.50
2023-05-24T00:41:05.542Z,74.50
2023-05-24T01:11:54.676Z,74.50
2023-05-24T01:14:12.394Z,74.50
2023-05-24T01:16:24.216Z,74.10
2023-05-24T01:18:28.854Z,73.90
2023-05-24T01:20:32.469Z,73.90
2023-05-24T01:22:37.005Z,73.50
2023-05-24T01:24:59.090Z,73.60
2023-05-24T01:27:14.461Z,72.80
2023-05-24T01:29:16.495Z,72.60
2023-05-24T01:31:18.958Z,72.30
2023-05-24T01:33:23.738Z,72.00
2023-05-24T01:35:25.594Z,71.80
2023-05-24T01:37:27.356Z,71.20
2023-05-24T01:39:29.574Z,71.30
2023-05-24T01:41:40.654Z,70.90
2023-05-24T01:43:48.758Z,70.80
2023-05-24T01:45:56.494Z,70.80
2023-05-24T01:48:04.243Z,70.60
2023-05-24T01:50:25.935Z,70.50
2023-05-24T01:52:31.625Z,70.40
2023-05-24T01:54:37.516Z,70.20
2023-05-24T01:56:40.659Z,70.30
2023-05-24T01:58:43.587Z,70.20
2023-05-24T02:00:45.812Z,70.10
2023-05-24T02:02:48.085Z,70.20
2023-05-24T02:04:51.351Z,70.20
2023-05-24T02:06:53.196Z,70.10
2023-05-24T02:08:55.049Z,70.10
2023-05-24T02:10:56.864Z,70.10
2023-05-24T02:12:58.807Z,70.10
2023-05-24T02:15:00.597Z,70.00
2023-05-24T02:17:02.500Z,70.00
2023-05-24T02:19:04.292Z,70.00
2023-05-24T02:21:06.128Z,70.00
2023-05-24T02:23:07.906Z,70.00
2023-05-24T02:25:12.081Z,70.00
2023-05-24T02:27:13.840Z,70.00
2023-05-24T02:29:15.722Z,70.00
2023-05-24T02:31:17.697Z,70.10
2023-05-24T02:33:19.684Z,69.90
2023-05-24T02:35:21.586Z,69.90
2023-05-24T02:37:23.434Z,69.90
2023-05-24T02:39:25.212Z,70.00
2023-05-24T02:41:27.054Z,69.90
2023-05-24T02:43:29.325Z,70.00
2023-05-24T02:45:31.377Z,69.90
2023-05-24T02:47:33.297Z,69.80
2023-05-24T02:49:35.189Z,70.00
2023-05-24T02:51:37.100Z,69.80
2023-05-24T02:53:38.957Z,69.90
2023-05-24T02:55:40.753Z,69.90
2023-05-24T02:57:42.689Z,69.80
2023-05-24T02:59:44.673Z,69.90
2023-05-24T03:01:46.942Z,69.90
2023-05-24T03:03:49.008Z,69.90
2023-05-24T03:05:51.012Z,69.80
2023-05-24T03:07:52.805Z,69.70
2023-05-24T03:09:54.912Z,69.60
2023-05-24T03:11:56.699Z,70.30
2023-05-24T03:13:58.690Z,69.40
2023-05-24T03:16:00.721Z,69.50
2023-05-24T03:18:02.698Z,69.70
2023-05-24T03:20:05.858Z,69.50
2023-05-24T03:22:08.171Z,69.60
2023-05-24T03:24:10.718Z,69.70
2023-05-24T03:26:12.919Z,69.70
2023-05-24T03:28:14.739Z,69.60
2023-05-24T03:30:18.179Z,69.70
2023-05-24T03:32:29.393Z,69.50
2023-05-24T03:34:31.384Z,69.60
2023-05-24T03:36:33.243Z,69.50
2023-05-24T03:38:35.117Z,69.50
2023-05-24T03:40:37.100Z,69.60
2023-05-24T03:42:42.235Z,69.60
2023-05-24T03:44:45.264Z,69.50
2023-05-24T03:46:47.144Z,69.50
2023-05-24T03:48:49.226Z,69.40
2023-05-24T03:50:51.077Z,69.40
2023-05-24T03:52:52.917Z,69.50
2023-05-24T03:54:54.788Z,69.40
2023-05-24T03:56:56.591Z,69.50
2023-05-24T03:58:59.239Z,69.60
2023-05-24T04:01:01.473Z,69.50
2023-05-24T04:03:03.647Z,69.50
2023-05-24T04:05:06.193Z,69.50
2023-05-24T04:07:08.135Z,69.50
2023-05-24T04:09:10.046Z,69.40
2023-05-24T04:11:11.929Z,69.30
2023-05-24T04:13:13.691Z,69.20
2023-05-24T04:15:15.525Z,69.40
2023-05-24T04:17:17.401Z,69.30
2023-05-24T04:19:19.320Z,69.40
2023-05-24T04:21:21.231Z,69.30
2023-05-24T04:23:23.067Z,69.40
2023-05-24T04:25:25.368Z,69.40
2023-05-24T04:27:27.322Z,69.20
2023-05-24T04:29:29.136Z,69.30
2023-05-24T04:31:31.003Z,69.40
2023-05-24T04:33:33.213Z,69.30
2023-05-24T04:35:35.082Z,69.30
2023-05-24T04:37:36.884Z,69.20
2023-05-24T04:39:38.779Z,69.20
2023-05-24T04:41:40.527Z,69.30
2023-05-24T04:43:42.364Z,69.30
2023-05-24T04:45:44.210Z,69.30
2023-05-24T04:47:46.155Z,69.30
2023-05-24T04:49:48.008Z,69.20
2023-05-24T04:51:49.926Z,69.20
2023-05-24T04:53:51.674Z,69.20
2023-05-24T04:55:53.508Z,69.10
2023-05-24T04:57:55.314Z,69.20
2023-05-24T04:59:57.221Z,69.20
2023-05-24T05:01:59.018Z,69.20
2023-05-24T05:04:00.975Z,69.20
2023-05-24T05:06:02.798Z,69.10
2023-05-24T05:08:04.868Z,69.10
2023-05-24T05:10:07.225Z,69.10
2023-05-24T05:12:09.092Z,69.10
2023-05-24T05:14:10.890Z,68.90
2023-05-24T05:16:12.927Z,68.90
2023-05-24T05:18:14.766Z,69.00
2023-05-24T05:20:16.753Z,68.90
2023-05-24T05:22:18.557Z,68.90
2023-05-24T05:24:20.367Z,69.00
2023-05-24T05:26:22.151Z,69.00
2023-05-24T05:28:24.042Z,69.70
2023-05-24T05:30:25.815Z,68.90
2023-05-24T05:32:27.731Z,69.00
2023-05-24T05:34:29.603Z,68.80
2023-05-24T05:36:31.447Z,68.80
2023-05-24T05:38:33.243Z,68.80
2023-05-24T05:40:35.107Z,69.00
2023-05-24T05:42:36.882Z,68.80
2023-05-24T05:44:38.737Z,69.00
2023-05-24T05:46:40.524Z,68.90
2023-05-24T05:48:43.283Z,68.80
2023-05-24T05:50:46.773Z,68.90
2023-05-24T05:52:48.676Z,68.90
2023-05-24T05:54:50.454Z,68.80
2023-05-24T05:56:52.336Z,68.80
2023-05-24T05:58:54.134Z,68.90
2023-05-24T06:00:55.977Z,69.00
2023-05-24T06:02:57.847Z,69.00
2023-05-24T06:05:00.372Z,68.90
2023-05-24T06:07:02.167Z,68.90
2023-05-24T06:09:04.052Z,69.00
2023-05-24T06:11:05.825Z,68.90
2023-05-24T06:13:07.705Z,68.80
2023-05-24T06:15:09.674Z,68.80
2023-05-24T06:17:11.480Z,68.90
2023-05-24T06:19:13.332Z,69.00
2023-05-24T06:21:15.524Z,68.90
2023-05-24T06:23:17.327Z,68.80
2023-05-24T06:25:19.212Z,68.90
2023-05-24T06:27:21.100Z,69.10
2023-05-24T06:29:23.027Z,68.70
2023-05-24T06:31:24.885Z,69.20
2023-05-24T06:33:26.802Z,69.20
2023-05-24T06:35:28.587Z,69.40
2023-05-24T06:37:30.409Z,69.50
2023-05-24T06:39:32.190Z,69.50
2023-05-24T06:41:34.097Z,70.30
2023-05-24T06:43:35.892Z,69.70
2023-05-24T06:45:37.755Z,69.70
2023-05-24T06:47:41.679Z,69.60
2023-05-24T06:49:43.617Z,69.60
2023-05-24T06:51:46.031Z,69.70
2023-05-24T06:53:48.647Z,69.60
2023-05-24T06:55:50.519Z,69.60
2023-05-24T06:57:52.557Z,69.60
2023-05-24T06:59:55.735Z,69.60
2023-05-24T07:01:58.961Z,69.70
2023-05-24T07:04:01.853Z,70.00
2023-05-24T07:06:03.785Z,69.60
2023-05-24T07:08:05.607Z,69.60
2023-05-24T07:10:07.764Z,69.10
2023-05-24T07:12:09.732Z,69.50
2023-05-24T07:14:11.612Z,69.40
2023-05-24T07:16:13.395Z,69.50
2023-05-24T07:18:15.307Z,69.40
2023-05-24T07:20:17.176Z,69.20
2023-05-24T07:22:19.062Z,69.20
2023-05-24T07:24:20.833Z,69.30
2023-05-24T07:26:22.696Z,69.40
2023-05-24T07:28:24.498Z,69.50
2023-05-24T07:30:32.199Z,69.10
2023-05-24T07:32:34.332Z,69.10
2023-05-24T07:34:36.327Z,69.00
2023-05-24T07:36:38.186Z,69.20
2023-05-24T07:38:40.080Z,68.80
2023-05-24T07:40:42.101Z,68.80
2023-05-24T07:42:44.123Z,68.70
2023-05-24T07:44:45.895Z,68.50
2023-05-24T07:46:47.828Z,68.60
2023-05-24T07:48:49.635Z,68.70
2023-05-24T07:50:51.524Z,68.80
2023-05-24T07:52:53.326Z,68.80
2023-05-24T07:54:55.281Z,69.00
2023-05-24T07:56:57.068Z,68.90
2023-05-24T07:58:59.227Z,69.00
2023-05-24T08:01:01.007Z,69.00
2023-05-24T08:03:02.944Z,69.00
2023-05-24T08:05:05.006Z,69.10
2023-05-24T08:07:08.820Z,68.70
2023-05-24T08:09:12.628Z,68.30
2023-05-24T08:11:14.537Z,68.30
2023-05-24T08:13:16.308Z,68.60
2023-05-24T08:15:18.145Z,68.60
2023-05-24T08:17:19.888Z,68.80
2023-05-24T08:19:21.693Z,68.60
2023-05-24T08:21:23.492Z,68.60
2023-05-24T08:23:25.350Z,68.90
2023-05-24T08:25:27.130Z,69.40
2023-05-24T08:27:29.057Z,70.40
2023-05-24T08:29:30.842Z,69.30
2023-05-24T08:31:33.250Z,69.40
2023-05-24T08:33:35.438Z,69.20
2023-05-24T08:35:37.264Z,69.90
2023-05-24T08:37:39.012Z,69.50
2023-05-24T08:39:40.979Z,69.40
2023-05-24T08:41:43.593Z,69.60
2023-05-24T08:43:46.255Z,69.30
2023-05-24T08:45:48.650Z,69.20
2023-05-24T08:47:50.997Z,69.20
2023-05-24T08:49:53.877Z,69.20
2023-05-24T08:51:55.879Z,69.00
2023-05-24T08:53:58.766Z,69.00
2023-05-24T08:56:00.821Z,69.50
2023-05-24T08:58:03.081Z,69.20
2023-05-24T09:00:06.308Z,68.80
2023-05-24T09:02:13.727Z,68.90
2023-05-24T09:04:15.876Z,69.00
2023-05-24T09:06:18.256Z,69.00
2023-05-24T09:08:20.201Z,69.00
2023-05-24T09:10:22.815Z,69.00
2023-05-24T09:12:36.266Z,69.00
2023-05-24T09:14:40.424Z,69.10
2023-05-24T09:16:43.937Z,69.10
2023-05-24T09:18:45.768Z,69.10
2023-05-24T09:20:47.843Z,69.10
2023-05-24T09:22:51.590Z,69.20
2023-05-24T09:24:53.724Z,69.10
2023-05-24T09:26:56.469Z,69.20
2023-05-24T09:28:58.496Z,69.20
2023-05-24T09:31:01.027Z,69.20
2023-05-24T09:33:02.979Z,70.20
2023-05-24T09:35:07.847Z,69.20
2023-05-24T09:37:16.090Z,69.20
2023-05-24T09:39:19.315Z,69.20
2023-05-24T09:41:21.177Z,69.80
2023-05-24T09:43:24.905Z,69.80
2023-05-24T09:45:28.394Z,69.50
2023-05-24T09:47:30.830Z,70.10
2023-05-24T09:49:33.279Z,69.30
2023-05-24T09:51:38.353Z,69.50
2023-05-24T09:53:44.627Z,69.60
2023-05-24T09:55:46.476Z,69.40
2023-05-24T09:58:01.532Z,69.40
2023-05-24T10:00:05.513Z,70.60
2023-05-24T10:02:08.250Z,69.90
2023-05-24T10:04:10.504Z,70.00
2023-05-24T10:06:12.669Z,70.60
2023-05-24T10:08:15.779Z,69.90
2023-05-24T10:10:17.873Z,69.20
2023-05-24T10:12:20.608Z,69.20
2023-05-24T10:14:23.793Z,69.10
2023-05-24T10:16:25.893Z,69.40
2023-05-24T10:18:27.767Z,69.20
2023-05-24T10:20:29.618Z,69.00
2023-05-24T10:22:31.938Z,69.00
2023-05-24T10:24:36.731Z,69.30
2023-05-24T10:26:38.994Z,69.00
2023-05-24T10:28:46.123Z,69.90
2023-05-24T10:30:53.944Z,69.20
2023-05-24T10:32:56.926Z,69.10
2023-05-24T10:35:00.133Z,69.20
2023-05-24T10:37:01.996Z,69.10
2023-05-24T10:39:03.987Z,69.10
2023-05-24T10:41:06.204Z,69.30
2023-05-24T10:43:08.446Z,69.20
2023-05-24T10:45:29.682Z,69.40
2023-05-24T10:47:31.561Z,68.80
2023-05-24T10:49:33.408Z,68.50
2023-05-24T10:51:38.879Z,68.40
2023-05-24T10:53:40.870Z,68.70
2023-05-24T10:55:57.715Z,68.80
2023-05-24T10:57:59.536Z,68.80
2023-05-24T11:00:30.793Z,68.70
2023-05-24T11:02:36.941Z,68.80
2023-05-24T11:04:42.770Z,68.60
2023-05-24T11:06:48.120Z,68.60
2023-05-24T11:08:49.880Z,68.60
2023-05-24T11:11:14.983Z,68.60
2023-05-24T11:13:27.170Z,68.60
2023-05-24T11:15:29.120Z,68.60
2023-05-24T11:17:30.970Z,68.50
2023-05-24T11:19:47.350Z,68.60
2023-05-24T11:21:50.457Z,68.60
2023-05-24T11:23:52.348Z,68.60
2023-05-24T11:25:54.240Z,68.50
2023-05-24T11:27:58.421Z,68.50
2023-05-24T11:30:00.786Z,68.60
2023-05-24T11:32:02.682Z,68.60
2023-05-24T11:34:04.789Z,68.60
2023-05-24T11:36:07.128Z,68.60
2023-05-24T11:38:12.476Z,68.60
2023-05-24T11:40:14.289Z,68.50
2023-05-24T11:42:16.159Z,68.60
2023-05-24T11:44:18.464Z,68.50
2023-05-24T11:46:20.474Z,68.60
2023-05-24T11:48:22.431Z,68.70
2023-05-24T11:50:26.561Z,68.40
2023-05-24T11:52:28.806Z,68.20
2023-05-24T11:54:30.942Z,68.80
2023-05-24T11:56:33.862Z,67.40
2023-05-24T11:58:42.917Z,68.10
2023-05-24T12:00:44.799Z,67.90
2023-05-24T12:02:48.087Z,68.20
2023-05-24T12:04:50.061Z,68.30
2023-05-24T12:06:51.915Z,67.80
2023-05-24T12:08:53.678Z,68.00
2023-05-24T12:10:55.541Z,67.80
2023-05-24T12:12:57.662Z,67.80
2023-05-24T12:14:59.498Z,68.10
2023-05-24T12:17:01.526Z,68.70
2023-05-24T12:19:09.529Z,68.20
2023-05-24T12:21:15.921Z,68.30
2023-05-24T12:23:23.053Z,68.40
2023-05-24T12:25:24.856Z,69.20
2023-05-24T12:27:30.132Z,68.70
2023-05-24T12:29:39.083Z,68.80
2023-05-24T12:31:41.327Z,68.80
2023-05-24T12:33:43.131Z,68.60
2023-05-24T12:35:45.768Z,68.80
2023-05-24T12:37:48.030Z,68.70
2023-05-24T12:39:51.242Z,68.70
2023-05-24T12:41:55.406Z,69.50
2023-05-24T12:43:57.320Z,68.60
2023-05-24T12:45:59.080Z,68.60
2023-05-24T12:48:01.073Z,68.70
2023-05-24T12:50:02.952Z,68.80
2023-05-24T12:52:04.937Z,68.70
2023-05-24T12:54:06.762Z,69.10
2023-05-24T12:56:08.641Z,69.00
2023-05-24T12:58:10.402Z,68.80
2023-05-24T13:00:12.470Z,69.40
2023-05-24T13:02:14.309Z,69.10
2023-05-24T13:04:16.596Z,69.90
2023-05-24T13:06:18.634Z,68.90
2023-05-24T13:08:20.496Z,68.70
2023-05-24T13:10:24.986Z,68.80
2023-05-24T13:12:26.883Z,69.20
2023-05-24T13:14:28.658Z,68.90
2023-05-24T13:16:30.494Z,69.60
2023-05-24T13:18:32.336Z,69.30
2023-05-24T13:20:34.187Z,69.10
2023-05-24T13:22:36.638Z,69.10
2023-05-24T13:24:38.494Z,69.80
2023-05-24T13:26:40.287Z,69.60
2023-05-24T13:28:58.682Z,70.20
2023-05-24T13:31:04.391Z,69.10
2023-05-24T13:33:06.329Z,69.30
2023-05-24T13:35:08.753Z,69.10
2023-05-24T13:37:10.937Z,69.20
2023-05-24T13:41:34.611Z,69.60
2023-05-24T13:43:36.428Z,68.60
2023-05-24T13:45:38.297Z,68.40
2023-05-24T13:47:40.612Z,69.00
2023-05-24T13:47:41.002Z,68.30
2023-05-24T13:49:43.405Z,68.60
2023-05-24T13:51:45.178Z,69.10
2023-05-24T13:53:47.053Z,68.40
2023-05-24T13:55:48.867Z,68.60
2023-05-24T13:57:52.380Z,68.70
2023-05-24T13:59:54.307Z,68.50
2023-05-24T14:01:56.194Z,69.20
2023-05-24T14:03:58.385Z,68.70
2023-05-24T14:06:00.276Z,68.40
2023-05-24T14:08:02.153Z,68.40
2023-05-24T14:10:04.054Z,68.70
2023-05-24T14:12:06.024Z,69.20
2023-05-24T14:14:57.965Z,68.20
2023-05-24T14:16:30.174Z,68.70
2023-05-24T14:18:32.186Z,68.30
2023-05-24T14:20:37.414Z,68.00
2023-05-24T14:22:39.607Z,68.00
2023-05-24T14:24:41.378Z,69.80
2023-05-24T14:26:43.294Z,69.10
2023-05-24T14:28:45.045Z,68.50
2023-05-24T14:30:46.898Z,67.90
2023-05-24T14:32:48.724Z,68.00
2023-05-24T14:34:51.394Z,68.20
2023-05-24T14:36:54.199Z,68.50
2023-05-24T14:38:56.064Z,67.80
2023-05-24T14:40:57.817Z,69.30
2023-05-24T14:43:05.990Z,68.40
2023-05-24T14:45:08.039Z,67.50
2023-05-24T14:47:09.879Z,68.40
2023-05-24T14:49:11.620Z,68.20
2023-05-24T14:51:13.473Z,67.90
2023-05-24T14:53:15.246Z,68.20
2023-05-24T14:55:17.130Z,66.40
2023-05-24T14:57:18.925Z,67.50
2023-05-24T14:59:20.718Z,66.60
2023-05-24T15:01:22.505Z,66.20
2023-05-24T15:03:24.442Z,66.90
2023-05-24T15:05:26.261Z,66.50
2023-05-24T15:07:28.149Z,66.00
2023-05-24T15:09:29.915Z,67.20
2023-05-24T15:11:31.731Z,69.30
2023-05-24T15:13:33.519Z,67.90
2023-05-24T15:15:35.352Z,68.10
2023-05-24T15:17:37.172Z,67.80
2023-05-24T15:19:39.089Z,67.20
2023-05-24T15:21:40.867Z,67.40
2023-05-24T15:23:42.711Z,68.80
2023-05-24T15:25:44.811Z,67.80
2023-05-24T15:27:46.747Z,67.20
2023-05-24T15:29:48.537Z,68.50
2023-05-24T15:31:50.558Z,67.00
2023-05-24T15:33:52.330Z,67.20
2023-05-24T15:35:54.134Z,65.70
2023-05-24T15:37:55.917Z,66.50
2023-05-24T15:39:57.776Z,65.10
2023-05-24T15:41:59.528Z,65.90
2023-05-24T15:44:01.377Z,65.00
2023-05-24T15:46:03.135Z,65.90
2023-05-24T15:48:05.037Z,65.40
2023-05-24T15:50:07.442Z,65.90
2023-05-24T15:52:09.662Z,65.80
2023-05-24T15:54:11.685Z,65.30
2023-05-24T15:56:13.530Z,66.80
2023-05-24T15:58:15.300Z,67.30
2023-05-24T16:00:17.764Z,65.40
2023-05-24T16:02:21.472Z,64.70
2023-05-24T16:04:23.475Z,63.80
2023-05-24T16:06:25.267Z,63.30
2023-05-24T16:08:27.997Z,64.10
2023-05-24T16:10:29.875Z,64.10
2023-05-24T16:12:32.997Z,63.70
2023-05-24T16:14:34.895Z,64.60
2023-05-24T16:16:36.788Z,63.30
2023-05-24T16:18:38.587Z,63.30
2023-05-24T16:20:40.461Z,63.50
2023-05-24T16:22:46.958Z,63.40
2023-05-24T16:24:48.812Z,64.70
2023-05-24T16:26:50.607Z,63.70
2023-05-24T16:28:52.471Z,63.60
2023-05-24T16:30:54.334Z,63.90
2023-05-24T16:32:56.225Z,63.40
2023-05-24T16:34:58.016Z,63.70
2023-05-24T16:36:59.942Z,63.50
2023-05-24T16:39:01.739Z,63.50
2023-05-24T16:41:03.559Z,63.70
2023-05-24T16:43:05.296Z,63.70
2023-05-24T16:45:07.333Z,63.80
2023-05-24T16:47:09.147Z,63.70
2023-05-24T16:49:11.029Z,63.70
2023-05-24T16:51:12.821Z,63.70
2023-05-24T16:53:14.676Z,64.00
2023-05-24T16:55:16.578Z,63.90
2023-05-24T16:57:18.438Z,63.90
2023-05-24T16:59:20.385Z,64.00
2023-05-24T17:01:22.708Z,64.00
2023-05-24T17:03:24.679Z,64.10
2023-05-24T17:05:26.577Z,64.10
2023-05-24T17:07:28.360Z,64.00
2023-05-24T17:09:30.238Z,64.00
2023-05-24T17:11:32.028Z,64.00
2023-05-24T17:13:33.957Z,63.90
2023-05-24T17:15:35.745Z,63.90
2023-05-24T17:17:37.650Z,64.10
2023-05-24T17:19:39.453Z,64.10
2023-05-24T17:21:41.283Z,64.10
2023-05-24T17:23:43.022Z,64.20
2023-05-24T17:25:44.867Z,64.30
2023-05-24T17:27:46.646Z,64.10
2023-05-24T17:29:48.446Z,64.00
2023-05-24T17:31:50.254Z,64.00
2023-05-24T17:33:52.136Z,64.00
2023-05-24T17:35:54.042Z,64.20
2023-05-24T17:37:55.848Z,64.10
2023-05-24T17:39:57.666Z,64.30
2023-05-24T17:41:59.527Z,64.20
2023-05-24T17:44:01.280Z,64.10
2023-05-24T17:46:03.680Z,64.30
2023-05-24T17:48:05.991Z,64.20
2023-05-24T17:50:08.086Z,64.20
2023-05-24T17:52:09.897Z,64.30
2023-05-24T17:54:11.697Z,64.20
2023-05-24T17:56:13.480Z,64.30
2023-05-24T17:58:15.378Z,64.20
2023-05-24T18:00:17.357Z,64.20
2023-05-24T18:02:22.668Z,64.20
2023-05-24T18:04:24.506Z,64.00
2023-05-24T18:06:26.322Z,63.90
2023-05-24T18:08:28.072Z,64.00
2023-05-24T18:10:30.025Z,64.10
2023-05-24T18:12:31.817Z,64.10
2023-05-24T18:14:34.080Z,64.00
2023-05-24T18:16:35.956Z,64.10
2023-05-24T18:18:38.020Z,63.90
2023-05-24T18:20:39.876Z,63.90
2023-05-24T18:22:41.753Z,63.80
2023-05-24T18:24:43.521Z,63.90
2023-05-24T18:26:47.271Z,63.90
2023-05-24T18:28:49.275Z,64.00
2023-05-24T18:30:51.688Z,63.90
2023-05-24T18:35:05.040Z,64.10
2023-05-24T18:37:06.783Z,63.90
2023-05-24T18:39:08.587Z,63.90
2023-05-24T18:41:10.398Z,63.90
2023-05-24T18:43:12.262Z,63.80
2023-05-24T18:45:14.024Z,63.90
2023-05-24T18:47:15.999Z,63.80
2023-05-24T18:49:17.757Z,63.80
2023-05-24T18:51:19.599Z,63.80
2023-05-24T18:53:21.394Z,63.80
2023-05-24T18:55:23.257Z,63.70
2023-05-24T18:57:25.245Z,63.70
2023-05-24T18:59:27.108Z,63.60
2023-05-24T19:01:28.917Z,63.60
2023-05-24T19:03:30.887Z,63.60
2023-05-24T19:05:32.742Z,63.60
2023-05-24T19:07:35.130Z,63.50
2023-05-24T19:09:36.920Z,63.60
2023-05-24T19:11:38.783Z,63.50
2023-05-24T19:13:41.183Z,63.40
2023-05-24T19:15:43.371Z,63.40
2023-05-24T19:17:45.390Z,63.40
2023-05-24T19:19:47.233Z,63.40
2023-05-24T19:21:48.989Z,63.40
2023-05-24T19:23:50.855Z,63.30
2023-05-24T19:25:52.621Z,63.30
2023-05-24T19:28:00.035Z,63.30
2023-05-24T19:30:02.433Z,63.30
2023-05-24T19:32:04.449Z,63.30
2023-05-24T19:34:06.237Z,63.30
2023-05-24T19:36:10.482Z,63.20
2023-05-24T19:38:12.424Z,63.10
2023-05-24T19:40:14.266Z,63.20
2023-05-24T19:42:16.100Z,63.20
2023-05-24T19:44:18.051Z,63.20
2023-05-24T19:46:19.837Z,63.00
2023-05-24T19:48:21.715Z,63.80
2023-05-24T19:50:23.465Z,63.00
2023-05-24T19:52:25.293Z,63.00
2023-05-24T19:54:27.096Z,63.00
2023-05-24T19:56:28.926Z,63.00
2023-05-24T19:58:30.682Z,63.00
2023-05-24T20:00:32.536Z,63.00
2023-05-24T20:02:36.384Z,63.00
2023-05-24T20:04:38.544Z,63.00
2023-05-24T20:06:40.421Z,63.00
2023-05-24T20:08:42.547Z,62.90
2023-05-24T20:10:44.304Z,62.80
2023-05-24T20:12:46.164Z,62.90
2023-05-24T20:14:47.949Z,62.90
2023-05-24T20:16:49.941Z,62.90
2023-05-24T20:18:51.778Z,62.90
2023-05-24T20:20:53.627Z,62.90
2023-05-24T20:22:55.442Z,62.80
2023-05-24T20:24:57.325Z,62.80
2023-05-24T20:26:59.067Z,62.80
2023-05-24T20:29:00.889Z,62.80
2023-05-24T20:31:02.966Z,62.80
2023-05-24T20:33:04.919Z,62.80
2023-05-24T20:35:07.015Z,62.70
2023-05-24T20:37:08.902Z,62.80
2023-05-24T20:39:10.682Z,62.80
2023-05-24T20:41:12.562Z,62.70
2023-05-24T20:43:14.338Z,62.60
2023-05-24T20:45:16.304Z,62.60
2023-05-24T20:47:18.056Z,62.60
2023-05-24T20:49:19.877Z,62.60
2023-05-24T20:51:21.643Z,62.60
2023-05-24T20:53:23.462Z,62.70
2023-05-24T20:55:26.767Z,62.70
2023-05-24T20:57:29.010Z,62.60
2023-05-24T20:59:30.753Z,62.60
2023-05-24T21:01:32.660Z,62.60
2023-05-24T21:03:34.601Z,62.60
2023-05-24T21:05:36.484Z,62.70
2023-05-24T21:07:38.290Z,62.70
2023-05-24T21:09:40.128Z,62.70
2023-05-24T21:11:41.880Z,62.60
2023-05-24T21:13:43.711Z,62.70
2023-05-24T21:15:45.813Z,62.70
2023-05-24T21:17:47.777Z,62.60
2023-05-24T21:19:49.620Z,62.60
2023-05-24T21:21:51.506Z,62.60
2023-05-24T21:23:53.306Z,62.60
2023-05-24T21:25:55.106Z,62.70
2023-05-24T21:27:56.892Z,62.70
2023-05-24T21:29:58.740Z,62.70
2023-05-24T21:32:00.483Z,62.70
2023-05-24T21:34:02.335Z,62.70
2023-05-24T21:36:04.332Z,62.70
2023-05-24T21:38:06.160Z,62.70
2023-05-24T21:40:08.134Z,62.70
2023-05-24T21:42:10.139Z,62.70
2023-05-24T21:44:11.888Z,62.70
2023-05-24T21:46:13.808Z,62.60
2023-05-24T21:48:15.602Z,62.60
2023-05-24T21:50:17.408Z,62.60
2023-05-24T21:52:19.495Z,62.60
2023-05-24T21:54:21.345Z,62.60
2023-05-24T21:56:23.131Z,62.60
2023-05-24T21:58:24.980Z,62.60
2023-05-24T22:00:26.803Z,62.60
2023-05-24T22:02:28.681Z,62.60
2023-05-24T22:04:30.487Z,62.60
2023-05-24T22:06:32.492Z,62.60
2023-05-24T22:08:34.279Z,62.60
2023-05-24T22:10:36.129Z,62.60
2023-05-24T22:12:39.350Z,62.60
2023-05-24T22:14:41.145Z,62.60
2023-05-24T22:16:43.045Z,62.60
2023-05-24T22:18:45.055Z,62.60
2023-05-24T22:20:47.068Z,62.60
2023-05-24T22:22:48.980Z,62.60
2023-05-24T22:24:50.778Z,62.50
2023-05-24T22:26:52.640Z,63.20
2023-05-24T22:28:55.922Z,62.60
2023-05-24T22:30:57.739Z,62.60
2023-05-24T22:32:59.514Z,62.50
2023-05-24T22:35:01.438Z,62.60
2023-05-24T22:37:03.240Z,62.60
2023-05-24T22:39:05.270Z,62.50
2023-05-24T22:41:07.246Z,62.50
2023-05-24T22:43:09.110Z,62.50
2023-05-24T22:45:10.952Z,62.50
2023-05-24T22:47:12.801Z,62.50
2023-05-24T22:49:14.556Z,62.40
2023-05-24T22:51:16.388Z,62.50
2023-05-24T22:53:18.175Z,62.50
2023-05-24T22:55:20.009Z,62.40
2023-05-24T22:57:21.855Z,62.50
2023-05-24T22:59:23.765Z,62.50
2023-05-24T23:01:25.560Z,62.40
2023-05-24T23:03:27.428Z,62.40
2023-05-24T23:05:29.312Z,62.40
2023-05-24T23:07:31.178Z,62.40
2023-05-24T23:09:32.990Z,62.40
2023-05-24T23:11:35.031Z,62.40
2023-05-24T23:13:37.416Z,62.40
2023-05-24T23:15:39.318Z,62.30
2023-05-24T23:17:41.150Z,62.40
2023-05-24T23:19:43.257Z,62.40
2023-05-24T23:21:45.076Z,62.40
2023-05-24T23:23:46.944Z,62.40
2023-05-24T23:25:49.618Z,62.40
2023-05-24T23:27:51.452Z,62.30
2023-05-24T23:29:53.227Z,62.30
2023-05-24T23:31:55.039Z,62.40
2023-05-24T23:33:56.813Z,62.40
2023-05-24T23:35:58.677Z,62.40
2023-05-24T23:38:00.474Z,62.40
2023-05-24T23:40:02.367Z,62.40
2023-05-24T23:42:04.556Z,62.30
2023-05-24T23:44:06.384Z,62.40
2023-05-24T23:46:08.137Z,62.40
2023-05-24T23:48:10.066Z,62.40
2023-05-24T23:50:11.927Z,62.40
2023-05-24T23:52:13.782Z,62.40
2023-05-24T23:54:15.614Z,62.40
2023-05-24T23:56:17.475Z,62.40
2023-05-24T23:58:19.254Z,62.40
